AirNav   Pilot Hours Calculator
 
 534 users online  

OK46 Mc Crays Airport
Manchester, Oklahoma, USA

GOING TO MANCHESTER?


FAA INFORMATION EFFECTIVE 08 SEPTEMBER 2022

Location

FAA Identifier: OK46
Lat/Long: 36-57-32.0930N 098-04-31.2280W
36-57.534883N 098-04.520467W
36.9589147,-98.0753411
(estimated)
Elevation: 1260 ft. / 384 m (estimated)
Variation: 07E (1985)
From city: 3 miles SW of MANCHESTER, OK
Time zone: UTC -5 (UTC -6 during Standard Time)
Zip code: 73758

Airport Operations

Airport use: Private use. Permission required prior to landing
Activation date: 09/1953
Control tower: no
ARTCC: KANSAS CITY CENTER
FSS: MC ALESTER FLIGHT SERVICE STATION
Attendance: CONTINUOUS
Wind indicator: yes
Segmented circle: no

Nearby radio navigation aids

VOR radial/distance  VOR name  Freq  Var
ENDr343/37.6VANCE VORTAC115.4005E
ODGr331/37.7WOODRING VOR/DME109.0008E

Airport Services

Airframe service: NONE
Powerplant service: NONE

Runway Information

Runway 17/35

Dimensions: 1500 x 100 ft. / 457 x 30 m
Surface: turf
RUNWAY 17  RUNWAY 35
Traffic pattern: leftleft
Obstructions: plines, marked, 200 ft. from runwaynone

Airport Ownership and Management from official FAA records

Ownership: Privately-owned
Owner: B.F. MC CRAY
38391 CR 770
MANCHESTER, OK 73758
Phone (580) 694-2207
Manager: B. F. MC CRAY
38391 CR 770
MANCHESTER, OK 73758
Phone (580) 694-2207

Airport Operational Statistics

Aircraft based on the field: 4
Single engine airplanes: 4
    

Additional Remarks

AIRFRAME AND POWER PLANT REPAIRS.
FOR CD CTC VANCE APCH AT580-213-6765. WHEN VANCE APCH IS CLSD, CTC KANSAS CITY ARTCC AT 913-254-8508.

Instrument Procedures

There are no published instrument procedures at OK46.

Some nearby airports with instrument procedures:

KANY - Anthony Municipal Airport (12 nm N)
O53 - Medford Municipal Airport (19 nm SE)
8K2 - Harper Municipal Airport (19 nm N)
KAVK - Alva Regional Airport (31 nm W)
KBKN - Blackwell-Tonkawa Municipal Airport (37 nm E)
 
Loc | Ops | Rwys | IFR | FBO | Links
Com | Nav | Svcs | Stats | Notes
Area around OK46 (Mc Crays Airport)
 
Road maps at: MapQuest Bing Google
 
Aerial photo
No photo
 
Sectional chart

 
Airport distance calculator
Flying to Mc Crays Airport? Find the distance to fly.

From to OK46

Sunrise and sunset
Times for 03-Oct-2022
 Local
(UTC-5)
 Zulu
(UTC)
Morning civil twilight07:0412:04
Sunrise07:3012:30
Sunset19:1200:12
Evening civil twilight19:3800:38

Current date and time
Zulu (UTC)  03-Oct-2022 05:39:59
Local (UTC-5)  03-Oct-2022 00:39:59
 
METAR
KP28 
30nm NW 
030456Z AUTO 12005KT 18/01 A3020 RMK AO1 SLP216 T01780011 $
KAVK 
31nm W 
030515Z AUTO 14007KT 10SM SCT044 BKN050 17/01 A3020 RMK AO2 PWINO
TAF
KEND 
39nm S 
030200Z 0302/0408 VRB06KT 9999 SKC QNH3017INS BECMG 0313/0314 18009KT 9999 FEW250 QNH3010INS TX29/0321Z TN11/0312Z
KPNC 
49nm E 
021720Z 0218/0318 13006KT P6SM SKC= TAF KSWO 021720Z 0218/0318 13006KT P6SM SKC
NOTAMs
Click for the latest NOTAMs
NOTAMs are issued by the DoD/FAA and will open in a separate window not controlled by AirNav.

 

 
 

Would you like to see your business listed on this page?

 If your business provides an interesting product or service to pilots, flight crews, aircraft, or users of the Mc Crays Airport, you should consider listing it here.  To start the listing process, click on the button below
 
Add a business
 

Other Pages about Mc Crays Airport

Update a link
 
Copyright © AirNav, LLC. All rights reserved. Privacy Policy  Contact